createdAt,value
2019-03-02T00:00:36.000Z,100523
2019-03-02T00:01:51.000Z,100527
2019-03-02T00:03:51.000Z,100527
2019-03-02T00:04:52.000Z,100525
2019-03-02T00:06:51.000Z,100528
2019-03-02T00:07:51.000Z,100527
2019-03-02T00:09:51.000Z,100525
2019-03-02T00:11:51.000Z,100521
2019-03-02T00:12:51.000Z,100518
2019-03-02T00:14:21.000Z,100522
2019-03-02T00:15:52.000Z,100515
2019-03-02T00:17:51.000Z,100512
2019-03-02T00:19:37.000Z,100512
2019-03-02T00:21:51.000Z,100514
2019-03-02T00:23:36.000Z,100513
2019-03-02T00:24:51.000Z,100511
2019-03-02T00:26:52.000Z,100516
2019-03-02T00:28:51.000Z,100519
2019-03-02T00:29:52.000Z,100525
2019-03-02T00:31:52.000Z,100520
2019-03-02T00:33:51.000Z,100523
2019-03-02T00:35:37.000Z,100517
2019-03-02T00:37:52.000Z,100519
2019-03-02T00:39:36.000Z,100521
2019-03-02T00:40:52.000Z,100520
2019-03-02T00:42:36.000Z,100518
2019-03-02T00:44:37.000Z,100510
2019-03-02T00:45:52.000Z,100505
2019-03-02T00:47:52.000Z,100508
2019-03-02T00:48:52.000Z,100508
2019-03-02T00:50:52.000Z,100508
2019-03-02T00:51:52.000Z,100509
2019-03-02T00:53:52.000Z,100507
2019-03-02T00:54:52.000Z,100507
2019-03-02T00:56:37.000Z,100505
2019-03-02T00:58:22.000Z,100504
2019-03-02T00:59:37.000Z,100503
2019-03-02T01:01:22.000Z,100510
2019-03-02T01:02:37.000Z,100503
2019-03-02T01:04:22.000Z,100501
2019-03-02T01:05:52.000Z,100496
2019-03-02T01:06:52.000Z,100495
2019-03-02T01:08:52.000Z,100495
2019-03-02T01:10:22.000Z,100491
2019-03-02T01:12:37.000Z,100491
2019-03-02T01:14:52.000Z,100490
2019-03-02T01:16:36.000Z,100488
2019-03-02T01:17:52.000Z,100485
2019-03-02T01:19:52.000Z,100485
2019-03-02T01:21:36.000Z,100485
2019-03-02T01:22:52.000Z,100489
2019-03-02T01:24:37.000Z,100471
2019-03-02T01:25:52.000Z,100479
2019-03-02T01:27:52.000Z,100482
2019-03-02T01:28:52.000Z,100474
2019-03-02T01:30:52.000Z,100481
2019-03-02T01:32:36.000Z,100472
2019-03-02T01:34:37.000Z,100464
2019-03-02T01:36:52.000Z,100465
2019-03-02T01:38:52.000Z,100469
2019-03-02T01:40:37.000Z,100462
2019-03-02T01:42:22.000Z,100462
2019-03-02T01:43:37.000Z,100458
2019-03-02T01:45:22.000Z,100453
2019-03-02T01:47:52.000Z,100459
2019-03-02T01:49:37.000Z,100459
2019-03-02T01:51:22.000Z,100457
2019-03-02T01:52:52.000Z,100456
2019-03-02T01:54:52.000Z,100459
2019-03-02T01:56:37.000Z,100454
2019-03-02T01:58:22.000Z,100457
2019-03-02T01:59:37.000Z,100457
2019-03-02T02:01:22.000Z,100450
2019-03-02T02:02:52.000Z,100446
2019-03-02T02:03:52.000Z,100453
2019-03-02T02:05:52.000Z,100454
2019-03-02T02:07:37.000Z,100450
2019-03-02T02:08:52.000Z,100446
2019-03-02T02:10:37.000Z,100443
2019-03-02T02:12:22.000Z,100449
2019-03-02T02:13:37.000Z,100445
2019-03-02T02:14:52.000Z,100441
2019-03-02T02:16:37.000Z,100436
2019-03-02T02:17:52.000Z,100437
2019-03-02T02:19:37.000Z,100438
2019-03-02T02:20:52.000Z,100438
2019-03-02T02:22:37.000Z,100432
2019-03-02T02:23:37.000Z,100432
2019-03-02T02:25:52.000Z,100434
2019-03-02T02:26:52.000Z,100434
2019-03-02T02:28:52.000Z,100422
2019-03-02T02:30:24.000Z,100414
2019-03-02T02:31:37.000Z,100417
2019-03-02T02:33:37.000Z,100415
2019-03-02T02:35:37.000Z,100426
2019-03-02T02:36:52.000Z,100423
2019-03-02T02:38:52.000Z,100420
2019-03-02T02:40:52.000Z,100421
2019-03-02T02:42:37.000Z,100414
2019-03-02T02:44:37.000Z,100409
2019-03-02T02:46:21.000Z,100408
2019-03-02T02:47:51.000Z,100410
2019-03-02T02:49:51.000Z,100410
2019-03-02T02:51:51.000Z,100408
2019-03-02T02:53:36.000Z,100409
2019-03-02T02:55:36.000Z,100398
2019-03-02T02:56:51.000Z,100401
2019-03-02T02:58:51.000Z,100401
2019-03-02T03:00:51.000Z,100393
2019-03-02T03:02:51.000Z,100393
2019-03-02T03:04:36.000Z,100384
2019-03-02T03:05:51.000Z,100395
2019-03-02T03:07:51.000Z,100389
2019-03-02T03:09:51.000Z,100395
2019-03-02T03:11:36.000Z,100386
2019-03-02T03:13:36.000Z,100387
2019-03-02T03:15:36.000Z,100385
2019-03-02T03:17:51.000Z,100389
2019-03-02T03:18:51.000Z,100382
2019-03-02T03:20:51.000Z,100383
2019-03-02T03:22:36.000Z,100373
2019-03-02T03:24:36.000Z,100374
2019-03-02T03:25:51.000Z,100374
2019-03-02T03:27:51.000Z,100377
2019-03-02T03:29:51.000Z,100370
2019-03-02T03:31:25.000Z,100370
2019-03-02T03:32:51.000Z,100372
2019-03-02T03:34:31.000Z,100379
2019-03-02T03:36:51.000Z,100366
2019-03-02T03:37:51.000Z,100365
2019-03-02T03:39:36.000Z,100366
2019-03-02T03:41:36.000Z,100370
2019-03-02T03:43:36.000Z,100373
2019-03-02T03:45:36.000Z,100365
2019-03-02T03:46:38.000Z,100370
2019-03-02T03:48:36.000Z,100367
2019-03-02T03:49:51.000Z,100360
2019-03-02T03:50:51.000Z,100361
2019-03-02T03:52:52.000Z,100357
2019-03-02T03:54:37.000Z,100360
2019-03-02T03:56:37.000Z,100360
2019-03-02T03:58:37.000Z,100359
2019-03-02T03:59:52.000Z,100359
2019-03-02T04:01:52.000Z,100354
2019-03-02T04:03:52.000Z,100355
2019-03-02T04:05:37.000Z,100354
2019-03-02T04:07:52.000Z,100353
2019-03-02T04:09:52.000Z,100354
2019-03-02T04:11:37.000Z,100355
2019-03-02T04:13:37.000Z,100357
2019-03-02T04:15:37.000Z,100347
2019-03-02T04:17:37.000Z,100344
2019-03-02T04:18:52.000Z,100352
2019-03-02T04:19:52.000Z,100345
2019-03-02T04:20:52.000Z,100341
2019-03-02T04:22:37.000Z,100341
2019-03-02T04:24:37.000Z,100340
2019-03-02T04:25:52.000Z,100334
2019-03-02T04:27:52.000Z,100345
2019-03-02T04:29:52.000Z,100344
2019-03-02T04:31:52.000Z,100348
2019-03-02T04:33:37.000Z,100339
2019-03-02T04:35:52.000Z,100344
2019-03-02T04:36:52.000Z,100340
2019-03-02T04:38:37.000Z,100336
2019-03-02T04:39:52.000Z,100342
2019-03-02T04:41:37.000Z,100335
2019-03-02T04:42:52.000Z,100340
2019-03-02T04:43:52.000Z,100336
2019-03-02T04:45:37.000Z,100338
2019-03-02T04:47:22.000Z,100345
2019-03-02T04:48:37.000Z,100336
2019-03-02T04:50:22.000Z,100347
2019-03-02T04:51:37.000Z,100333
2019-03-02T04:53:22.000Z,100335
2019-03-02T04:54:37.000Z,100335
2019-03-02T04:56:24.000Z,100337
2019-03-02T04:57:52.000Z,100329
2019-03-02T04:58:52.000Z,100334
2019-03-02T05:00:52.000Z,100319
2019-03-02T05:02:22.000Z,100322
2019-03-02T05:03:52.000Z,100320
2019-03-02T05:05:37.000Z,100317
2019-03-02T05:07:52.000Z,100318
2019-03-02T05:09:37.000Z,100316
2019-03-02T05:11:37.000Z,100318
2019-03-02T05:12:52.000Z,100315
2019-03-02T05:14:37.000Z,100318
2019-03-02T05:15:52.000Z,100319
2019-03-02T05:17:37.000Z,100316
2019-03-02T05:18:52.000Z,100312
2019-03-02T05:20:37.000Z,100312
2019-03-02T05:22:52.000Z,100316
2019-03-02T05:24:37.000Z,100312
2019-03-02T05:26:52.000Z,100316
2019-03-02T05:28:37.000Z,100312
2019-03-02T05:30:52.000Z,100316
2019-03-02T05:32:37.000Z,100314
2019-03-02T05:34:37.000Z,100315
2019-03-02T05:35:52.000Z,100315
2019-03-02T05:37:37.000Z,100308
2019-03-02T05:38:52.000Z,100311
2019-03-02T05:39:52.000Z,100313
2019-03-02T05:41:37.000Z,100314
2019-03-02T05:42:52.000Z,100302
2019-03-02T05:44:37.000Z,100306
2019-03-02T05:46:22.000Z,100299
2019-03-02T05:47:52.000Z,100300
2019-03-02T05:49:37.000Z,100295
2019-03-02T05:50:52.000Z,100304
2019-03-02T05:52:37.000Z,100306
2019-03-02T05:53:37.000Z,100304
2019-03-02T05:54:37.000Z,100311
2019-03-02T05:56:22.000Z,100301
2019-03-02T05:57:37.000Z,100299
2019-03-02T05:59:26.000Z,100306
2019-03-02T06:00:37.000Z,100307
2019-03-02T06:01:37.000Z,100306
2019-03-02T06:02:52.000Z,100310
2019-03-02T06:03:52.000Z,100307
2019-03-02T06:05:52.000Z,100310
2019-03-02T06:07:52.000Z,100308
2019-03-02T06:09:52.000Z,100307
2019-03-02T06:11:37.000Z,100304
2019-03-02T06:13:24.000Z,100309
2019-03-02T06:15:37.000Z,100305
2019-03-02T06:17:52.000Z,100313
2019-03-02T06:18:52.000Z,100310
2019-03-02T06:20:52.000Z,100314
2019-03-02T06:21:52.000Z,100312
2019-03-02T06:23:52.000Z,100310
2019-03-02T06:25:23.000Z,100302
2019-03-02T06:26:37.000Z,100304
2019-03-02T06:27:52.000Z,100306
2019-03-02T06:29:37.000Z,100309
2019-03-02T06:30:37.000Z,100307
2019-03-02T06:32:22.000Z,100304
2019-03-02T06:33:37.000Z,100314
2019-03-02T06:34:52.000Z,100317
2019-03-02T06:36:37.000Z,100312
2019-03-02T06:37:52.000Z,100309
2019-03-02T06:39:37.000Z,100311
2019-03-02T06:41:52.000Z,100309
2019-03-02T06:42:52.000Z,100309
2019-03-02T06:44:37.000Z,100306
2019-03-02T06:45:37.000Z,100305
2019-03-02T06:47:52.000Z,100306
2019-03-02T06:49:52.000Z,100310
2019-03-02T06:51:52.000Z,100304
2019-03-02T06:53:37.000Z,100297
2019-03-02T06:54:52.000Z,100298
2019-03-02T06:56:37.000Z,100296
2019-03-02T06:57:52.000Z,100296
2019-03-02T06:59:37.000Z,100296
2019-03-02T07:01:22.000Z,100291
2019-03-02T07:02:52.000Z,100285
2019-03-02T07:03:52.000Z,100284
2019-03-02T07:05:52.000Z,100279
2019-03-02T07:06:51.000Z,100270
2019-03-02T07:08:51.000Z,100267
2019-03-02T07:09:51.000Z,100266
2019-03-02T07:11:51.000Z,100256
2019-03-02T07:12:51.000Z,100256
2019-03-02T07:14:51.000Z,100248
2019-03-02T07:16:36.000Z,100235
2019-03-02T07:17:51.000Z,100236
2019-03-02T07:19:36.000Z,100237
2019-03-02T07:21:36.000Z,100237
2019-03-02T07:23:21.000Z,100243
2019-03-02T07:24:25.000Z,100241
2019-03-02T07:25:36.000Z,100244
2019-03-02T07:26:51.000Z,100236
2019-03-02T07:28:36.000Z,100244
2019-03-02T07:30:51.000Z,100230
2019-03-02T07:32:36.000Z,100228
2019-03-02T07:33:51.000Z,100220
2019-03-02T07:35:51.000Z,100228
2019-03-02T07:37:36.000Z,100232
2019-03-02T07:39:51.000Z,100231
2019-03-02T07:41:21.000Z,100225
2019-03-02T07:42:51.000Z,100231
2019-03-02T07:43:51.000Z,100233
2019-03-02T07:45:51.000Z,100235
2019-03-02T07:46:51.000Z,100242
2019-03-02T07:48:51.000Z,100228
2019-03-02T07:49:51.000Z,100230
2019-03-02T07:51:36.000Z,100233
2019-03-02T07:52:51.000Z,100236
2019-03-02T07:54:36.000Z,100236
2019-03-02T07:56:51.000Z,100231
2019-03-02T07:58:36.000Z,100236
2019-03-02T07:59:36.000Z,100240
2019-03-02T08:00:36.000Z,100233
2019-03-02T08:02:21.000Z,100233
2019-03-02T08:03:51.000Z,100241
2019-03-02T08:05:51.000Z,100241
2019-03-02T08:07:36.000Z,100239
2019-03-02T08:08:51.000Z,100241
2019-03-02T08:10:36.000Z,100239
2019-03-02T08:11:52.000Z,100241
2019-03-02T08:13:37.000Z,100244
2019-03-02T08:14:52.000Z,100240
2019-03-02T08:16:37.000Z,100246
2019-03-02T08:17:52.000Z,100242
2019-03-02T08:19:52.000Z,100245
2019-03-02T08:21:52.000Z,100246
2019-03-02T08:22:52.000Z,100249
2019-03-02T08:23:52.000Z,100248
2019-03-02T08:25:37.000Z,100249
2019-03-02T08:27:52.000Z,100249
2019-03-02T08:28:52.000Z,100250
2019-03-02T08:30:52.000Z,100247
2019-03-02T08:32:52.000Z,100255
2019-03-02T08:34:52.000Z,100255
2019-03-02T08:36:52.000Z,100259
2019-03-02T08:38:52.000Z,100254
2019-03-02T08:40:22.000Z,100255
2019-03-02T08:41:39.000Z,100255
2019-03-02T08:42:52.000Z,100260
2019-03-02T08:44:37.000Z,100257
2019-03-02T08:45:52.000Z,100252
2019-03-02T08:47:52.000Z,100263
2019-03-02T08:49:37.000Z,100258
2019-03-02T08:51:52.000Z,100259
2019-03-02T08:53:52.000Z,100262
2019-03-02T08:54:52.000Z,100266
2019-03-02T08:56:52.000Z,100268
2019-03-02T08:58:37.000Z,100272
2019-03-02T09:00:37.000Z,100268
2019-03-02T09:02:52.000Z,100277
2019-03-02T09:04:52.000Z,100274
2019-03-02T09:06:52.000Z,100281
2019-03-02T09:08:52.000Z,100270
2019-03-02T09:10:52.000Z,100280
2019-03-02T09:12:22.000Z,100272
2019-03-02T09:13:52.000Z,100274
2019-03-02T09:14:52.000Z,100277
2019-03-02T09:16:37.000Z,100277
2019-03-02T09:17:52.000Z,100274
2019-03-02T09:19:22.000Z,100273
2019-03-02T09:21:37.000Z,100271
2019-03-02T09:23:52.000Z,100271
2019-03-02T09:25:22.000Z,100264
2019-03-02T09:26:52.000Z,100266
2019-03-02T09:27:52.000Z,100264
2019-03-02T09:29:52.000Z,100267
2019-03-02T09:31:25.000Z,100265
2019-03-02T09:32:52.000Z,100265
2019-03-02T09:34:37.000Z,100259
2019-03-02T09:36:52.000Z,100255
2019-03-02T09:38:36.000Z,100262
2019-03-02T09:40:24.000Z,100256
2019-03-02T09:41:25.000Z,100262
2019-03-02T09:42:37.000Z,100260
2019-03-02T09:43:52.000Z,100262
2019-03-02T09:45:52.000Z,100265
2019-03-02T09:47:52.000Z,100257
2019-03-02T09:49:36.000Z,100255
2019-03-02T09:50:52.000Z,100260
2019-03-02T09:51:52.000Z,100261
2019-03-02T09:53:52.000Z,100255
2019-03-02T09:54:52.000Z,100254
2019-03-02T09:56:52.000Z,100247
2019-03-02T09:58:23.000Z,100254
2019-03-02T09:59:52.000Z,100247
2019-03-02T10:01:37.000Z,100245
2019-03-02T10:03:22.000Z,100242
2019-03-02T10:04:37.000Z,100245
2019-03-02T10:05:52.000Z,100250
2019-03-02T10:07:39.000Z,100246
2019-03-02T10:08:52.000Z,100248
2019-03-02T10:10:24.000Z,100244
2019-03-02T10:12:37.000Z,100250
2019-03-02T10:13:52.000Z,100243
2019-03-02T10:15:52.000Z,100244
2019-03-02T10:16:52.000Z,100244
2019-03-02T10:18:21.000Z,100239
2019-03-02T10:19:22.000Z,100245
2019-03-02T10:20:37.000Z,100244
2019-03-02T10:22:22.000Z,100239
2019-03-02T10:23:37.000Z,100238
2019-03-02T10:25:22.000Z,100231
2019-03-02T10:26:37.000Z,100238
2019-03-02T10:28:37.000Z,100241
2019-03-02T10:29:52.000Z,100247
2019-03-02T10:31:37.000Z,100238
2019-03-02T10:32:52.000Z,100237
2019-03-02T10:34:37.000Z,100237
2019-03-02T10:35:52.000Z,100231
2019-03-02T10:37:37.000Z,100234
2019-03-02T10:38:52.000Z,100236
2019-03-02T10:39:52.000Z,100233
2019-03-02T10:41:52.000Z,100225
2019-03-02T10:43:37.000Z,100224
2019-03-02T10:44:37.000Z,100224
2019-03-02T10:46:37.000Z,100217
2019-03-02T10:47:52.000Z,100213
2019-03-02T10:49:52.000Z,100208
2019-03-02T10:51:37.000Z,100205
2019-03-02T10:52:52.000Z,100208
2019-03-02T10:54:52.000Z,100209
2019-03-02T10:55:52.000Z,100203
2019-03-02T10:57:52.000Z,100203
2019-03-02T10:59:52.000Z,100207
2019-03-02T11:01:37.000Z,100204
2019-03-02T11:02:52.000Z,100205
2019-03-02T11:04:37.000Z,100197
2019-03-02T11:06:52.000Z,100197
2019-03-02T11:07:52.000Z,100191
2019-03-02T11:09:37.000Z,100192
2019-03-02T11:10:52.000Z,100187
2019-03-02T11:12:37.000Z,100193
2019-03-02T11:14:52.000Z,100185
2019-03-02T11:16:52.000Z,100194
2019-03-02T11:18:52.000Z,100190
2019-03-02T11:19:52.000Z,100184
2019-03-02T11:21:52.000Z,100185
2019-03-02T11:23:22.000Z,100183
2019-03-02T11:24:52.000Z,100179
2019-03-02T11:25:52.000Z,100176
2019-03-02T11:27:52.000Z,100170
2019-03-02T11:29:52.000Z,100164
2019-03-02T11:31:52.000Z,100154
2019-03-02T11:33:52.000Z,100155
2019-03-02T11:35:22.000Z,100155
2019-03-02T11:36:22.000Z,100150
2019-03-02T11:37:41.000Z,100148
2019-03-02T11:39:52.000Z,100145
2019-03-02T11:41:52.000Z,100139
2019-03-02T11:42:52.000Z,100129
2019-03-02T11:44:52.000Z,100126
2019-03-02T11:46:52.000Z,100137
2019-03-02T11:48:52.000Z,100128
2019-03-02T11:50:52.000Z,100130
2019-03-02T11:52:37.000Z,100124
2019-03-02T11:54:22.000Z,100123
2019-03-02T11:55:52.000Z,100123
2019-03-02T11:57:52.000Z,100129
2019-03-02T11:59:52.000Z,100131
2019-03-02T12:01:52.000Z,100118
2019-03-02T12:03:37.000Z,100114
2019-03-02T12:04:52.000Z,100122
2019-03-02T12:06:37.000Z,100116
2019-03-02T12:07:52.000Z,100111
2019-03-02T12:09:52.000Z,100108
2019-03-02T12:10:52.000Z,100108
2019-03-02T12:11:52.000Z,100113
2019-03-02T12:13:52.000Z,100112
2019-03-02T12:15:22.000Z,100102
2019-03-02T12:16:26.000Z,100115
2019-03-02T12:17:37.000Z,100110
2019-03-02T12:19:22.000Z,100108
2019-03-02T12:21:52.000Z,100103
2019-03-02T12:23:22.000Z,100107
2019-03-02T12:24:38.000Z,100104
2019-03-02T12:25:52.000Z,100098
2019-03-02T12:27:22.000Z,100099
2019-03-02T12:28:37.000Z,100098
2019-03-02T12:30:22.000Z,100085
2019-03-02T12:31:51.000Z,100084
2019-03-02T12:33:51.000Z,100085
2019-03-02T12:35:36.000Z,100091
2019-03-02T12:37:51.000Z,100093
2019-03-02T12:39:21.000Z,100081
2019-03-02T12:40:36.000Z,100079
2019-03-02T12:42:51.000Z,100080
2019-03-02T12:44:36.000Z,100075
2019-03-02T12:45:51.000Z,100073
2019-03-02T12:47:51.000Z,100077
2019-03-02T12:48:51.000Z,100079
2019-03-02T12:50:21.000Z,100074
2019-03-02T12:51:36.000Z,100075
2019-03-02T12:53:21.000Z,100083
2019-03-02T12:54:39.000Z,100073
2019-03-02T12:55:51.000Z,100088
2019-03-02T12:57:36.000Z,100074
2019-03-02T12:59:36.000Z,100070
2019-03-02T13:00:51.000Z,100069
2019-03-02T13:02:36.000Z,100064
2019-03-02T13:03:51.000Z,100064
2019-03-02T13:05:21.000Z,100067
2019-03-02T13:06:51.000Z,100060
2019-03-02T13:08:21.000Z,100061
2019-03-02T13:09:36.000Z,100062
2019-03-02T13:11:21.000Z,100058
2019-03-02T13:12:36.000Z,100052
2019-03-02T13:14:36.000Z,100044
2019-03-02T13:16:23.000Z,100043
2019-03-02T13:18:51.000Z,100038
2019-03-02T13:20:36.000Z,100040
2019-03-02T13:21:51.000Z,100030
2019-03-02T13:23:36.000Z,100037
2019-03-02T13:25:51.000Z,100032
2019-03-02T13:26:51.000Z,100033
2019-03-02T13:28:36.000Z,100033
2019-03-02T13:30:21.000Z,100028
2019-03-02T13:31:36.000Z,100029
2019-03-02T13:33:51.000Z,100034
2019-03-02T13:34:51.000Z,100027
2019-03-02T13:36:36.000Z,100022
2019-03-02T13:37:51.000Z,100027
2019-03-02T13:39:37.000Z,100026
2019-03-02T13:41:29.000Z,100021
2019-03-02T13:42:51.000Z,100030
2019-03-02T13:44:36.000Z,100030
2019-03-02T13:45:51.000Z,100023
2019-03-02T13:47:37.000Z,100024
2019-03-02T13:49:36.000Z,100021
2019-03-02T13:50:36.000Z,100021
2019-03-02T13:52:36.000Z,100014
2019-03-02T13:53:51.000Z,100016
2019-03-02T13:55:36.000Z,100008
2019-03-02T13:57:37.000Z,100008
2019-03-02T13:59:52.000Z,100008
2019-03-02T14:01:22.000Z,100003
2019-03-02T14:02:37.000Z,99999
2019-03-02T14:04:22.000Z,99989
2019-03-02T14:05:37.000Z,99989
2019-03-02T14:07:52.000Z,99989
2019-03-02T14:09:36.000Z,99990
2019-03-02T14:11:37.000Z,99976
2019-03-02T14:13:52.000Z,99981
2019-03-02T14:15:22.000Z,99976
2019-03-02T14:16:52.000Z,99970
2019-03-02T14:18:22.000Z,99975
2019-03-02T14:19:37.000Z,99974
2019-03-02T14:21:36.000Z,99974
2019-03-02T14:23:26.000Z,99970
2019-03-02T14:24:37.000Z,99970
2019-03-02T14:26:51.000Z,99973
2019-03-02T14:27:52.000Z,99972
2019-03-02T14:29:52.000Z,99970
2019-03-02T14:31:37.000Z,99969
2019-03-02T14:33:22.000Z,99962
2019-03-02T14:34:37.000Z,99955
2019-03-02T14:36:52.000Z,99958
2019-03-02T14:37:52.000Z,99957
2019-03-02T14:39:37.000Z,99950
2019-03-02T14:41:23.000Z,99941
2019-03-02T14:42:37.000Z,99953
2019-03-02T14:44:52.000Z,99952
2019-03-02T14:45:52.000Z,99946
2019-03-02T14:47:38.000Z,99951
2019-03-02T14:49:22.000Z,99949
2019-03-02T14:51:52.000Z,99947
2019-03-02T14:53:52.000Z,99951
2019-03-02T14:54:52.000Z,99950
2019-03-02T14:56:52.000Z,99950
2019-03-02T14:58:37.000Z,99947
2019-03-02T14:59:37.000Z,99953
2019-03-02T15:01:37.000Z,99944
2019-03-02T15:02:37.000Z,99938
2019-03-02T15:04:37.000Z,99943
2019-03-02T15:05:52.000Z,99945
2019-03-02T15:07:22.000Z,99947
2019-03-02T15:08:37.000Z,99942
2019-03-02T15:10:22.000Z,99945
2019-03-02T15:11:37.000Z,99943
2019-03-02T15:13:22.000Z,99946
2019-03-02T15:14:37.000Z,99934
2019-03-02T15:16:37.000Z,99941
2019-03-02T15:18:22.000Z,99941
2019-03-02T15:19:37.000Z,99942
2019-03-02T15:21:52.000Z,99937
2019-03-02T15:23:36.000Z,99938
2019-03-02T15:24:52.000Z,99943
2019-03-02T15:26:37.000Z,99934
2019-03-02T15:28:22.000Z,99940
2019-03-02T15:29:52.000Z,99934
2019-03-02T15:31:37.000Z,99936
2019-03-02T15:32:52.000Z,99930
2019-03-02T15:34:37.000Z,99933
2019-03-02T15:36:52.000Z,99932
2019-03-02T15:38:37.000Z,99934
2019-03-02T15:39:52.000Z,99936
2019-03-02T15:41:52.000Z,99941
2019-03-02T15:42:52.000Z,99936
2019-03-02T15:44:52.000Z,99934
2019-03-02T15:46:39.000Z,99932
2019-03-02T15:47:52.000Z,99937
2019-03-02T15:49:37.000Z,99928
2019-03-02T15:50:51.000Z,99931
2019-03-02T15:52:37.000Z,99922
2019-03-02T15:54:36.000Z,99928
2019-03-02T15:55:37.000Z,99920
2019-03-02T15:57:37.000Z,99924
2019-03-02T15:59:51.000Z,99927
2019-03-02T16:01:26.000Z,99922
2019-03-02T16:02:37.000Z,99917
2019-03-02T16:04:37.000Z,99917
2019-03-02T16:06:22.000Z,99915
2019-03-02T16:08:52.000Z,99916
2019-03-02T16:10:37.000Z,99919
2019-03-02T16:12:37.000Z,99914
2019-03-02T16:14:37.000Z,99925
2019-03-02T16:15:52.000Z,99929
2019-03-02T16:17:37.000Z,99930
2019-03-02T16:19:22.000Z,99927
2019-03-02T16:20:37.000Z,99917
2019-03-02T16:22:51.000Z,99920
2019-03-02T16:23:52.000Z,99925
2019-03-02T16:25:37.000Z,99916
2019-03-02T16:26:51.000Z,99913
2019-03-02T16:28:37.000Z,99915
2019-03-02T16:29:51.000Z,99908
2019-03-02T16:31:36.000Z,99913
2019-03-02T16:32:51.000Z,99914
2019-03-02T16:34:36.000Z,99917
2019-03-02T16:36:37.000Z,99918
2019-03-02T16:38:52.000Z,99922
2019-03-02T16:40:22.000Z,99924
2019-03-02T16:41:52.000Z,99919
2019-03-02T16:43:22.000Z,99915
2019-03-02T16:44:37.000Z,99916
2019-03-02T16:45:51.000Z,99926
2019-03-02T16:47:36.000Z,99926
2019-03-02T16:49:37.000Z,99928
2019-03-02T16:51:22.000Z,99928
2019-03-02T16:52:37.000Z,99925
2019-03-02T16:54:52.000Z,99925
2019-03-02T16:55:52.000Z,99935
2019-03-02T16:57:29.000Z,99928
2019-03-02T16:59:52.000Z,99936
2019-03-02T17:00:52.000Z,99931
2019-03-02T17:02:52.000Z,99935
2019-03-02T17:04:36.000Z,99937
2019-03-02T17:05:36.000Z,99934
2019-03-02T17:06:52.000Z,99933
2019-03-02T17:08:52.000Z,99931
2019-03-02T17:10:22.000Z,99930
2019-03-02T17:11:52.000Z,99933
2019-03-02T17:12:52.000Z,99934
2019-03-02T17:13:52.000Z,99935
2019-03-02T17:15:22.000Z,99930
2019-03-02T17:16:52.000Z,99933
2019-03-02T17:17:52.000Z,99937
2019-03-02T17:19:24.000Z,99933
2019-03-02T17:20:37.000Z,99935
2019-03-02T17:22:52.000Z,99935
2019-03-02T17:24:23.000Z,99932
2019-03-02T17:25:52.000Z,99933
2019-03-02T17:27:52.000Z,99936
2019-03-02T17:29:52.000Z,99933
2019-03-02T17:31:37.000Z,99933
2019-03-02T17:32:52.000Z,99933
2019-03-02T17:34:52.000Z,99933
2019-03-02T17:36:37.000Z,99929
2019-03-02T17:37:52.000Z,99925
2019-03-02T17:38:52.000Z,99933
2019-03-02T17:40:36.000Z,99936
2019-03-02T17:41:52.000Z,99937
2019-03-02T17:42:52.000Z,99935
2019-03-02T17:44:22.000Z,99933
2019-03-02T17:45:52.000Z,99936
2019-03-02T17:46:52.000Z,99927
2019-03-02T17:48:36.000Z,99921
2019-03-02T17:50:52.000Z,99924
2019-03-02T17:52:37.000Z,99926
2019-03-02T17:54:37.000Z,99921
2019-03-02T17:56:37.000Z,99922
2019-03-02T17:57:37.000Z,99919
2019-03-02T17:59:37.000Z,99917
2019-03-02T18:01:52.000Z,99923
2019-03-02T18:03:22.000Z,99917
2019-03-02T18:04:37.000Z,99918
2019-03-02T18:05:37.000Z,99923
2019-03-02T18:07:37.000Z,99916
2019-03-02T18:09:24.000Z,99915
2019-03-02T18:10:37.000Z,99917
2019-03-02T18:12:22.000Z,99922
2019-03-02T18:13:37.000Z,99916
2019-03-02T18:15:22.000Z,99921
2019-03-02T18:16:37.000Z,99913
2019-03-02T18:18:52.000Z,99917
2019-03-02T18:20:22.000Z,99908
2019-03-02T18:21:52.000Z,99905
2019-03-02T18:22:52.000Z,99899
2019-03-02T18:24:52.000Z,99907
2019-03-02T18:25:52.000Z,99903
2019-03-02T18:27:37.000Z,99899
2019-03-02T18:28:52.000Z,99913
2019-03-02T18:30:37.000Z,99908
2019-03-02T18:31:52.000Z,99909
2019-03-02T18:33:37.000Z,99905
2019-03-02T18:35:37.000Z,99913
2019-03-02T18:36:37.000Z,99909
2019-03-02T18:38:52.000Z,99905
2019-03-02T18:40:37.000Z,99903
2019-03-02T18:41:52.000Z,99904
2019-03-02T18:43:37.000Z,99901
2019-03-02T18:45:37.000Z,99903
2019-03-02T18:46:52.000Z,99903
2019-03-02T18:48:37.000Z,99903
2019-03-02T18:49:52.000Z,99919
2019-03-02T18:51:37.000Z,99901
2019-03-02T18:53:52.000Z,99911
2019-03-02T18:54:52.000Z,99905
2019-03-02T18:56:37.000Z,99909
2019-03-02T18:57:52.000Z,99900
2019-03-02T18:59:37.000Z,99910
2019-03-02T19:01:52.000Z,99906
2019-03-02T19:03:22.000Z,99910
2019-03-02T19:04:39.000Z,99906
2019-03-02T19:05:52.000Z,99912
2019-03-02T19:07:37.000Z,99909
2019-03-02T19:09:22.000Z,99910
2019-03-02T19:10:37.000Z,99906
2019-03-02T19:12:37.000Z,99902
2019-03-02T19:13:37.000Z,99895
2019-03-02T19:15:37.000Z,99900
2019-03-02T19:16:52.000Z,99898
2019-03-02T19:17:52.000Z,99905
2019-03-02T19:18:52.000Z,99907
2019-03-02T19:20:52.000Z,99908
2019-03-02T19:22:52.000Z,99903
2019-03-02T19:24:52.000Z,99901
2019-03-02T19:25:52.000Z,99896
2019-03-02T19:27:37.000Z,99902
2019-03-02T19:28:52.000Z,99898
2019-03-02T19:30:52.000Z,99894
2019-03-02T19:32:52.000Z,99902
2019-03-02T19:34:52.000Z,99897
2019-03-02T19:36:52.000Z,99902
2019-03-02T19:37:52.000Z,99903
2019-03-02T19:38:52.000Z,99908
2019-03-02T19:40:52.000Z,99908
2019-03-02T19:41:52.000Z,99901
2019-03-02T19:43:52.000Z,99907
2019-03-02T19:44:52.000Z,99910
2019-03-02T19:46:52.000Z,99912
2019-03-02T19:48:52.000Z,99910
2019-03-02T19:49:52.000Z,99916
2019-03-02T19:51:52.000Z,99909
2019-03-02T19:53:52.000Z,99920
2019-03-02T19:55:52.000Z,99917
2019-03-02T19:57:52.000Z,99915
2019-03-02T19:59:37.000Z,99910
2019-03-02T20:00:52.000Z,99909
2019-03-02T20:02:52.000Z,99909
2019-03-02T20:04:52.000Z,99911
2019-03-02T20:05:52.000Z,99916
2019-03-02T20:07:52.000Z,99919
2019-03-02T20:09:52.000Z,99913
2019-03-02T20:10:52.000Z,99917
2019-03-02T20:11:52.000Z,99915
2019-03-02T20:13:52.000Z,99918
2019-03-02T20:15:52.000Z,99914
2019-03-02T20:17:52.000Z,99910
2019-03-02T20:19:52.000Z,99914
2019-03-02T20:21:52.000Z,99906
2019-03-02T20:23:52.000Z,99912
2019-03-02T20:24:52.000Z,99909
2019-03-02T20:26:52.000Z,99910
2019-03-02T20:27:52.000Z,99906
2019-03-02T20:29:37.000Z,99910
2019-03-02T20:30:52.000Z,99911
2019-03-02T20:32:52.000Z,99907